sensor_id;sensor_type;location;lat;lon;timestamp;P1;durP1;ratioP1;P2;durP2;ratioP2
46633;SDS011;32362;49.986;8.026;2023-05-10T00:22:27;0.20;;;0.20;;
46633;SDS011;32362;49.986;8.026;2023-05-10T00:49:07;0.40;;;0.40;;
46633;SDS011;32362;49.986;8.026;2023-05-10T01:15:48;0.65;;;0.60;;
46633;SDS011;32362;49.986;8.026;2023-05-10T01:42:31;0.75;;;0.55;;
46633;SDS011;32362;49.986;8.026;2023-05-10T02:09:27;1.48;;;0.70;;
46633;SDS011;32362;49.986;8.026;2023-05-10T02:36:10;2.55;;;0.57;;
46633;SDS011;32362;49.986;8.026;2023-05-10T03:02:52;2.25;;;0.50;;
46633;SDS011;32362;49.986;8.026;2023-05-10T03:29:33;2.90;;;0.90;;
46633;SDS011;32362;49.986;8.026;2023-05-10T03:56:15;0.93;;;0.93;;
46633;SDS011;32362;49.986;8.026;2023-05-10T04:22:56;3.40;;;1.30;;
46633;SDS011;32362;49.986;8.026;2023-05-10T04:49:37;1.80;;;1.70;;
46633;SDS011;32362;49.986;8.026;2023-05-10T05:16:17;4.17;;;2.17;;
46633;SDS011;32362;49.986;8.026;2023-05-10T05:42:58;2.83;;;1.70;;
46633;SDS011;32362;49.986;8.026;2023-05-10T06:09:38;5.83;;;1.90;;
46633;SDS011;32362;49.986;8.026;2023-05-10T06:36:19;3.38;;;1.50;;
46633;SDS011;32362;49.986;8.026;2023-05-10T07:03:00;3.78;;;1.35;;
46633;SDS011;32362;49.986;8.026;2023-05-10T07:29:40;4.17;;;1.30;;
46633;SDS011;32362;49.986;8.026;2023-05-10T08:23:07;3.03;;;0.40;;
46633;SDS011;32362;49.986;8.026;2023-05-10T08:49:48;0.70;;;0.60;;
46633;SDS011;32362;49.986;8.026;2023-05-10T09:16:31;0.52;;;0.52;;
46633;SDS011;32362;49.986;8.026;2023-05-10T09:43:11;0.27;;;0.27;;
46633;SDS011;32362;49.986;8.026;2023-05-10T10:09:53;1.58;;;0.38;;
46633;SDS011;32362;49.986;8.026;2023-05-10T10:36:42;0.32;;;0.32;;
46633;SDS011;32362;49.986;8.026;2023-05-10T11:03:25;0.73;;;0.30;;
46633;SDS011;32362;49.986;8.026;2023-05-10T11:30:10;0.40;;;0.20;;
46633;SDS011;32362;49.986;8.026;2023-05-10T11:56:51;0.65;;;0.30;;
46633;SDS011;32362;49.986;8.026;2023-05-10T12:23:32;0.10;;;0.10;;
46633;SDS011;32362;49.986;8.026;2023-05-10T12:50:13;0.80;;;0.30;;
46633;SDS011;32362;49.986;8.026;2023-05-10T13:16:53;1.87;;;0.40;;
46633;SDS011;32362;49.986;8.026;2023-05-10T13:43:34;0.20;;;0.20;;
46633;SDS011;32362;49.986;8.026;2023-05-10T14:10:16;1.05;;;0.30;;
46633;SDS011;32362;49.986;8.026;2023-05-10T14:36:56;1.67;;;0.45;;
46633;SDS011;32362;49.986;8.026;2023-05-10T15:03:37;1.83;;;0.40;;
46633;SDS011;32362;49.986;8.026;2023-05-10T15:30:18;3.37;;;0.77;;
46633;SDS011;32362;49.986;8.026;2023-05-10T15:56:58;5.38;;;0.60;;
46633;SDS011;32362;49.986;8.026;2023-05-10T16:23:39;2.92;;;0.70;;
46633;SDS011;32362;49.986;8.026;2023-05-10T16:50:20;6.05;;;0.70;;
46633;SDS011;32362;49.986;8.026;2023-05-10T17:17:01;3.72;;;0.73;;
46633;SDS011;32362;49.986;8.026;2023-05-10T17:43:42;4.78;;;0.30;;
46633;SDS011;32362;49.986;8.026;2023-05-10T18:10:23;0.82;;;0.20;;
46633;SDS011;32362;49.986;8.026;2023-05-10T18:37:04;0.40;;;0.22;;
46633;SDS011;32362;49.986;8.026;2023-05-10T19:03:46;1.02;;;0.50;;
46633;SDS011;32362;49.986;8.026;2023-05-10T19:30:26;0.70;;;0.43;;
46633;SDS011;32362;49.986;8.026;2023-05-10T19:57:07;1.15;;;0.50;;
46633;SDS011;32362;49.986;8.026;2023-05-10T20:23:48;0.60;;;0.40;;
46633;SDS011;32362;49.986;8.026;2023-05-10T20:50:28;3.33;;;0.50;;
46633;SDS011;32362;49.986;8.026;2023-05-10T21:17:09;0.98;;;0.63;;
46633;SDS011;32362;49.986;8.026;2023-05-10T21:43:50;1.17;;;0.53;;
46633;SDS011;32362;49.986;8.026;2023-05-10T22:10:30;3.47;;;0.50;;
46633;SDS011;32362;49.986;8.026;2023-05-10T22:37:11;1.20;;;0.80;;
46633;SDS011;32362;49.986;8.026;2023-05-10T23:03:56;1.17;;;0.70;;
46633;SDS011;32362;49.986;8.026;2023-05-10T23:30:37;3.90;;;0.80;;
46633;SDS011;32362;49.986;8.026;2023-05-10T23:57:18;4.77;;;1.00;;
